Impacts METAR Board
IDs:

KVPS - Valparaiso/Eglin AFB, FL, US

Updated at: 1800 UTC 02 Oct 2022
Potential Impact None Slight Moderate High
Time 02/06Z 02/07Z 02/08Z 02/09Z 02/10Z 02/11Z 02/12Z 02/13Z 02/14Z 02/15Z 02/16Z 02/17Z 02/18Z
Temp63 63 62 61 59 58 57 63 70 75 80 83 86
Dewpt45 45 46 46 47 47 47 49 50 51 49 49 48
Altim29.92 29.93 29.93 29.93 29.95 29.96 29.97 29.99 30.00 30.01 30.01 29.98 29.96
VIS10 10 10 10 10 10 10 10 10 10 10 10 10
CIG-- -- -- -- -- -- -- -- -- -- -- -- --
CoverCLRCLRCLRCLRCLRCLRCLRCLRCLRCLRCLRCLRCLR
FltCatVFRVFRVFRVFRVFRVFRVFRVFRVFRVFRVFRVFRVFR
WX--------------------------
WDir3403403503601036036036036035010350340
WSpd8 9 7 9 7 7 7 7 8 5 9 8 11
WGst-- -- -- -- -- -- -- -- -- -- -- -- 22
Raw hourly METARs
KVPS 020555Z AUTO 34008KT 10SM CLR 17/07 A2992 RMK AO2 SLP138 T01730071 10235 20163 403020151 58002 $
KVPS 020655Z AUTO 34009KT 10SM CLR 17/07 A2993 RMK AO2 SLP141 T01740074 $
KVPS 020755Z AUTO 35007KT 10SM CLR 16/08 A2993 RMK AO2 SLP141 T01640076 $
KVPS 020855Z AUTO 36009KT 10SM CLR 16/08 A2993 RMK AO2 SLP141 T01590079 51003 $
KVPS 020955Z AUTO 01007KT 10SM CLR 15/08 A2995 RMK AO2 SLP148 T01510081 $
KVPS 021055Z AUTO 36007KT 10SM CLR 15/08 A2996 RMK AO2 SLP152 T01460083 $
KVPS 021155Z AUTO 36007KT 10SM CLR 14/08 A2997 RMK AO2 SLP155 T01400084 10174 20140 52013 $
KVPS 021255Z AUTO 36007KT 10SM CLR 17/09 A2999 RMK AO2 SLP162 T01700092 $
KVPS 021355Z AUTO 36008KT 10SM CLR 21/10 A3000 RMK AO2 SLP165 T02090101 $
KVPS 021455Z AUTO 35005KT 10SM CLR 24/11 A3001 RMK AO2 SLP169 T02370107 52013 $
KVPS 021555Z AUTO 01009KT 10SM CLR 27/09 A3001 RMK AO2 SLP169 T02650093 $
KVPS 021655Z AUTO 35008KT 10SM CLR 28/09 A2998 RMK AO2 SLP158 T02810094 TSNO $
KVPS 021800Z AUTO 34011G22KT 10SM CLR 30/09 A2996 RMK AO2 WSHFT 1758 SLP152 TSNO $



Page loaded:  18:59 UTC  |   11:59 AM Pacific  |   12:59 PM Mountain  |   01:59 PM Central  |   02:59 PM Eastern

 

ADVISORIES

FORECASTS

FORECASTS

OBSERVATIONS

USER TOOLS

ABOUT US